sensor_id;sensor_type;location;lat;lon;timestamp;pressure;altitude;pressure_sealevel;temperature;humidity
50430;BME280;36359;41.556;-8.418;2024-03-08T00:01:18;61649.34;;;10.89;100.00
50430;BME280;36359;41.556;-8.418;2024-03-08T00:03:44;61640.31;;;10.75;100.00
50430;BME280;36359;41.556;-8.418;2024-03-08T00:06:10;61610.44;;;10.52;100.00
50430;BME280;36359;41.556;-8.418;2024-03-08T00:08:36;61604.59;;;10.41;100.00
50430;BME280;36359;41.556;-8.418;2024-03-08T00:11:01;61576.34;;;10.14;100.00
50430;BME280;36359;41.556;-8.418;2024-03-08T00:13:27;61614.72;;;10.53;100.00
50430;BME280;36359;41.556;-8.418;2024-03-08T00:15:53;61599.81;;;10.36;100.00
50430;BME280;36359;41.556;-8.418;2024-03-08T00:18:19;61608.84;;;10.50;100.00
50430;BME280;36359;41.556;-8.418;2024-03-08T00:20:45;61589.69;;;10.27;100.00
50430;BME280;36359;41.556;-8.418;2024-03-08T00:23:11;61594.47;;;10.34;100.00
50430;BME280;36359;41.556;-8.418;2024-03-08T00:25:37;61638.66;;;10.79;100.00
50430;BME280;36359;41.556;-8.418;2024-03-08T00:28:04;61630.69;;;10.68;100.00
50430;BME280;36359;41.556;-8.418;2024-03-08T00:30:30;61629.09;;;10.67;100.00
50430;BME280;36359;41.556;-8.418;2024-03-08T00:32:56;61633.91;;;10.72;100.00
50430;BME280;36359;41.556;-8.418;2024-03-08T00:35:22;61639.78;;;10.75;100.00
50430;BME280;36359;41.556;-8.418;2024-03-08T00:37:48;61646.16;;;10.83;100.00
50430;BME280;36359;41.556;-8.418;2024-03-08T00:40:14;61649.34;;;10.89;100.00
50430;BME280;36359;41.556;-8.418;2024-03-08T00:42:40;61635.50;;;10.71;100.00
50430;BME280;36359;41.556;-8.418;2024-03-08T00:45:07;61628.03;;;10.66;100.00
50430;BME280;36359;41.556;-8.418;2024-03-08T00:47:33;61599.25;;;10.38;100.00
50430;BME280;36359;41.556;-8.418;2024-03-08T00:49:59;61620.06;;;10.56;100.00
50430;BME280;36359;41.556;-8.418;2024-03-08T00:52:24;61661.63;;;10.98;100.00
50430;BME280;36359;41.556;-8.418;2024-03-08T00:54:50;61626.97;;;10.65;100.00
50430;BME280;36359;41.556;-8.418;2024-03-08T00:57:16;61618.44;;;10.59;100.00
50430;BME280;36359;41.556;-8.418;2024-03-08T00:59:42;61608.31;;;10.47;100.00
50430;BME280;36359;41.556;-8.418;2024-03-08T01:02:07;61623.22;;;10.61;100.00
50430;BME280;36359;41.556;-8.418;2024-03-08T01:04:36;61592.34;;;10.29;100.00
50430;BME280;36359;41.556;-8.418;2024-03-08T01:07:02;61560.38;;;9.98;100.00
50430;BME280;36359;41.556;-8.418;2024-03-08T01:09:28;61628.06;;;10.63;100.00
50430;BME280;36359;41.556;-8.418;2024-03-08T01:11:57;61619.00;;;10.55;100.00
50430;BME280;36359;41.556;-8.418;2024-03-08T01:14:23;61600.84;;;10.42;100.00
50430;BME280;36359;41.556;-8.418;2024-03-08T01:16:51;61627.50;;;10.65;100.00
50430;BME280;36359;41.556;-8.418;2024-03-08T01:19:16;61584.88;;;10.22;100.00
50430;BME280;36359;41.556;-8.418;2024-03-08T01:21:43;61615.25;;;10.54;100.00
50430;BME280;36359;41.556;-8.418;2024-03-08T01:24:09;61625.91;;;10.61;100.00
50430;BME280;36359;41.556;-8.418;2024-03-08T01:26:34;61639.78;;;10.75;100.00
50430;BME280;36359;41.556;-8.418;2024-03-08T01:29:01;61656.81;;;10.94;100.00
50430;BME280;36359;41.556;-8.418;2024-03-08T01:31:31;61652.03;;;10.86;100.00
50430;BME280;36359;41.556;-8.418;2024-03-08T01:34:00;61634.41;;;10.75;100.00
50430;BME280;36359;41.556;-8.418;2024-03-08T01:36:26;61688.81;;;11.24;100.00
50430;BME280;36359;41.556;-8.418;2024-03-08T01:38:52;61662.16;;;10.99;100.00
50430;BME280;36359;41.556;-8.418;2024-03-08T01:41:18;61678.72;;;11.12;100.00
50430;BME280;36359;41.556;-8.418;2024-03-08T01:43:45;61664.31;;;10.98;100.00
50430;BME280;36359;41.556;-8.418;2024-03-08T01:46:12;61668.53;;;11.05;100.00
50430;BME280;36359;41.556;-8.418;2024-03-08T01:48:40;61658.94;;;10.98;100.00
50430;BME280;36359;41.556;-8.418;2024-03-08T01:51:07;61644.56;;;10.82;100.00
50430;BME280;36359;41.556;-8.418;2024-03-08T01:53:34;61597.66;;;10.37;100.00
50430;BME280;36359;41.556;-8.418;2024-03-08T01:56:01;61590.75;;;10.28;100.00
50430;BME280;36359;41.556;-8.418;2024-03-08T01:58:29;61612.06;;;10.48;100.00
50430;BME280;36359;41.556;-8.418;2024-03-08T02:00:59;61609.38;;;10.48;100.00
50430;BME280;36359;41.556;-8.418;2024-03-08T02:03:25;61619.47;;;10.60;100.00
50430;BME280;36359;41.556;-8.418;2024-03-08T02:05:51;61616.31;;;10.52;100.00
50430;BME280;36359;41.556;-8.418;2024-03-08T02:08:20;61636.00;;;10.76;100.00
50430;BME280;36359;41.556;-8.418;2024-03-08T02:10:48;61664.81;;;11.01;100.00
50430;BME280;36359;41.556;-8.418;2024-03-08T02:13:15;61668.53;;;11.05;100.00
50430;BME280;36359;41.556;-8.418;2024-03-08T02:16:10;61648.81;;;10.86;100.00
50430;BME280;36359;41.556;-8.418;2024-03-08T02:18:36;61700.50;;;11.38;100.00
50430;BME280;36359;41.556;-8.418;2024-03-08T02:21:03;61670.16;;;11.06;100.00
50430;BME280;36359;41.556;-8.418;2024-03-08T02:23:29;61617.91;;;10.56;100.00
50430;BME280;36359;41.556;-8.418;2024-03-08T02:25:56;61584.88;;;10.22;100.00
50430;BME280;36359;41.556;-8.418;2024-03-08T02:28:23;61527.34;;;9.67;100.00
50430;BME280;36359;41.556;-8.418;2024-03-08T02:30:49;61477.84;;;9.19;100.00
50430;BME280;36359;41.556;-8.418;2024-03-08T02:33:17;61512.94;;;9.58;100.00
50430;BME280;36359;41.556;-8.418;2024-03-08T02:35:46;61559.28;;;10.00;100.00
50430;BME280;36359;41.556;-8.418;2024-03-08T02:38:17;61575.25;;;10.15;100.00
50430;BME280;36359;41.556;-8.418;2024-03-08T02:40:44;61577.94;;;10.18;100.00
50430;BME280;36359;41.556;-8.418;2024-03-08T02:43:11;61557.66;;;10.01;100.00
50430;BME280;36359;41.556;-8.418;2024-03-08T02:45:36;61522.00;;;9.64;100.00
50430;BME280;36359;41.556;-8.418;2024-03-08T02:48:03;61470.91;;;9.13;100.00
50430;BME280;36359;41.556;-8.418;2024-03-08T02:50:28;61448.53;;;8.94;100.00
50430;BME280;36359;41.556;-8.418;2024-03-08T02:53:02;61467.72;;;9.09;100.00
50430;BME280;36359;41.556;-8.418;2024-03-08T02:55:27;61491.09;;;9.37;100.00
50430;BME280;36359;41.556;-8.418;2024-03-08T02:57:53;61529.97;;;9.74;100.00
50430;BME280;36359;41.556;-8.418;2024-03-08T03:00:23;61527.31;;;9.69;100.00
50430;BME280;36359;41.556;-8.418;2024-03-08T03:02:50;61510.28;;;9.53;100.00
50430;BME280;36359;41.556;-8.418;2024-03-08T03:05:20;61469.28;;;9.14;100.00
50430;BME280;36359;41.556;-8.418;2024-03-08T03:07:46;61463.44;;;9.08;100.00
50430;BME280;36359;41.556;-8.418;2024-03-08T03:10:12;61458.69;;;9.01;100.00
50430;BME280;36359;41.556;-8.418;2024-03-08T03:12:38;61435.25;;;8.81;100.00
50430;BME280;36359;41.556;-8.418;2024-03-08T03:15:04;61436.31;;;8.79;100.00
50430;BME280;36359;41.556;-8.418;2024-03-08T03:17:30;61439.53;;;8.82;100.00
50430;BME280;36359;41.556;-8.418;2024-03-08T03:19:56;61395.88;;;8.40;100.00
50430;BME280;36359;41.556;-8.418;2024-03-08T03:22:21;61463.97;;;9.08;100.00
50430;BME280;36359;41.556;-8.418;2024-03-08T03:24:47;61473.00;;;9.17;100.00
50430;BME280;36359;41.556;-8.418;2024-03-08T03:29:42;61446.94;;;8.92;100.00
50430;BME280;36359;41.556;-8.418;2024-03-08T03:32:12;61462.91;;;9.07;100.00
50430;BME280;36359;41.556;-8.418;2024-03-08T03:34:38;61438.97;;;8.84;100.00
50430;BME280;36359;41.556;-8.418;2024-03-08T03:37:04;61414.50;;;8.58;100.00
50430;BME280;36359;41.556;-8.418;2024-03-08T03:39:30;61457.59;;;9.00;100.00
50430;BME280;36359;41.556;-8.418;2024-03-08T03:41:58;61449.09;;;8.92;100.00
50430;BME280;36359;41.556;-8.418;2024-03-08T03:44:24;61479.38;;;9.26;100.00
50430;BME280;36359;41.556;-8.418;2024-03-08T03:46:50;61436.28;;;8.82;100.00
50430;BME280;36359;41.556;-8.418;2024-03-08T03:49:18;61472.50;;;9.17;100.00
50430;BME280;36359;41.556;-8.418;2024-03-08T03:51:44;61487.91;;;9.31;100.00
50430;BME280;36359;41.556;-8.418;2024-03-08T03:54:10;61471.97;;;9.16;100.00
50430;BME280;36359;41.556;-8.418;2024-03-08T03:56:36;61474.13;;;9.16;100.00
50430;BME280;36359;41.556;-8.418;2024-03-08T03:59:02;61464.53;;;9.09;100.00
50430;BME280;36359;41.556;-8.418;2024-03-08T04:01:28;61445.34;;;8.91;100.00
50430;BME280;36359;41.556;-8.418;2024-03-08T04:03:55;61454.41;;;8.97;100.00
50430;BME280;36359;41.556;-8.418;2024-03-08T04:06:20;61473.53;;;9.20;100.00
50430;BME280;36359;41.556;-8.418;2024-03-08T04:08:48;61444.31;;;8.87;100.00
50430;BME280;36359;41.556;-8.418;2024-03-08T04:11:16;61443.78;;;8.86;100.00
50430;BME280;36359;41.556;-8.418;2024-03-08T04:13:45;61455.97;;;9.03;100.00
50430;BME280;36359;41.556;-8.418;2024-03-08T04:16:10;61432.03;;;8.80;100.00
50430;BME280;36359;41.556;-8.418;2024-03-08T04:18:39;61376.72;;;8.22;100.00
50430;BME280;36359;41.556;-8.418;2024-03-08T04:21:05;61415.56;;;8.62;100.00
50430;BME280;36359;41.556;-8.418;2024-03-08T04:23:34;61429.94;;;8.73;100.00
50430;BME280;36359;41.556;-8.418;2024-03-08T04:26:03;61432.03;;;8.80;100.00
50430;BME280;36359;41.556;-8.418;2024-03-08T04:28:29;61419.31;;;8.63;100.00
50430;BME280;36359;41.556;-8.418;2024-03-08T04:30:57;61446.44;;;8.89;100.00
50430;BME280;36359;41.556;-8.418;2024-03-08T04:33:22;61434.72;;;8.80;100.00
50430;BME280;36359;41.556;-8.418;2024-03-08T04:35:49;61475.69;;;9.20;100.00
50430;BME280;36359;41.556;-8.418;2024-03-08T04:38:15;61434.19;;;8.77;100.00
50430;BME280;36359;41.556;-8.418;2024-03-08T04:40:41;61483.16;;;9.27;100.00
50430;BME280;36359;41.556;-8.418;2024-03-08T04:43:07;61505.50;;;9.46;100.00
50430;BME280;36359;41.556;-8.418;2024-03-08T04:45:34;61518.28;;;9.58;100.00
50430;BME280;36359;41.556;-8.418;2024-03-08T04:48:00;61527.88;;;9.67;100.00
50430;BME280;36359;41.556;-8.418;2024-03-08T04:50:25;61602.47;;;10.39;100.00
50430;BME280;36359;41.556;-8.418;2024-03-08T04:52:55;61629.66;;;10.65;100.00
50430;BME280;36359;41.556;-8.418;2024-03-08T04:55:21;61623.22;;;10.61;100.00
50430;BME280;36359;41.556;-8.418;2024-03-08T05:00:16;61682.94;;;11.19;100.00
50430;BME280;36359;41.556;-8.418;2024-03-08T05:02:42;61636.03;;;10.74;100.00
50430;BME280;36359;41.556;-8.418;2024-03-08T05:05:08;61625.91;;;10.64;100.00
50430;BME280;36359;41.556;-8.418;2024-03-08T05:07:39;61647.22;;;10.84;100.00
50430;BME280;36359;41.556;-8.418;2024-03-08T05:10:06;61711.75;;;11.46;100.00
50430;BME280;36359;41.556;-8.418;2024-03-08T05:12:33;61702.69;;;11.37;100.00
50430;BME280;36359;41.556;-8.418;2024-03-08T05:14:58;61717.09;;;11.51;100.00
50430;BME280;36359;41.556;-8.418;2024-03-08T05:17:24;61731.50;;;11.65;100.00
50430;BME280;36359;41.556;-8.418;2024-03-08T05:19:50;61705.31;;;11.43;100.00
50430;BME280;36359;41.556;-8.418;2024-03-08T05:22:16;61723.47;;;11.60;100.00
50430;BME280;36359;41.556;-8.418;2024-03-08T05:24:43;61728.81;;;11.65;100.00
50430;BME280;36359;41.556;-8.418;2024-03-08T05:27:08;61772.09;;;12.01;100.00
50430;BME280;36359;41.556;-8.418;2024-03-08T05:29:34;61708.00;;;11.43;100.00
50430;BME280;36359;41.556;-8.418;2024-03-08T05:32:00;61746.97;;;11.80;100.00
50430;BME280;36359;41.556;-8.418;2024-03-08T05:34:26;61726.13;;;11.63;100.00
50430;BME280;36359;41.556;-8.418;2024-03-08T05:36:54;61715.50;;;11.47;100.00
50430;BME280;36359;41.556;-8.418;2024-03-08T05:39:20;61738.44;;;11.69;100.00
50430;BME280;36359;41.556;-8.418;2024-03-08T05:41:46;61729.88;;;11.64;100.00
50430;BME280;36359;41.556;-8.418;2024-03-08T05:44:12;61707.47;;;11.42;100.00
50430;BME280;36359;41.556;-8.418;2024-03-08T05:46:39;61716.56;;;11.48;100.00
50430;BME280;36359;41.556;-8.418;2024-03-08T05:49:05;61710.16;;;11.42;100.00
50430;BME280;36359;41.556;-8.418;2024-03-08T05:51:35;61710.16;;;11.45;100.00
50430;BME280;36359;41.556;-8.418;2024-03-08T05:54:05;61804.06;;;12.37;100.00
50430;BME280;36359;41.556;-8.418;2024-03-08T05:56:31;61758.19;;;11.91;100.00
50430;BME280;36359;41.556;-8.418;2024-03-08T05:58:57;61772.06;;;12.04;100.00
50430;BME280;36359;41.556;-8.418;2024-03-08T06:01:26;61745.34;;;11.81;100.00
50430;BME280;36359;41.556;-8.418;2024-03-08T06:03:53;61703.75;;;11.39;100.00
50430;BME280;36359;41.556;-8.418;2024-03-08T06:06:21;61741.06;;;11.77;100.00
50430;BME280;36359;41.556;-8.418;2024-03-08T06:08:48;61717.09;;;11.51;100.00
50430;BME280;36359;41.556;-8.418;2024-03-08T06:11:15;61744.28;;;11.80;100.00
50430;BME280;36359;41.556;-8.418;2024-03-08T06:13:43;61784.88;;;12.14;100.00
50430;BME280;36359;41.556;-8.418;2024-03-08T06:16:09;61781.63;;;12.16;100.00
50430;BME280;36359;41.556;-8.418;2024-03-08T06:18:35;61685.59;;;11.24;100.00
50430;BME280;36359;41.556;-8.418;2024-03-08T06:21:05;61756.06;;;11.89;100.00
50430;BME280;36359;41.556;-8.418;2024-03-08T06:23:34;61767.31;;;11.94;100.00
50430;BME280;36359;41.556;-8.418;2024-03-08T06:26:09;61825.41;;;12.58;100.00
50430;BME280;36359;41.556;-8.418;2024-03-08T06:28:35;61808.34;;;12.41;100.00
50430;BME280;36359;41.556;-8.418;2024-03-08T06:31:01;61796.59;;;12.30;100.00
50430;BME280;36359;41.556;-8.418;2024-03-08T06:33:28;61771.00;;;12.03;100.00
50430;BME280;36359;41.556;-8.418;2024-03-08T06:35:56;61804.59;;;12.38;100.00
50430;BME280;36359;41.556;-8.418;2024-03-08T06:38:26;61784.88;;;12.16;100.00
50430;BME280;36359;41.556;-8.418;2024-03-08T06:40:52;61767.75;;;12.02;100.00
50430;BME280;36359;41.556;-8.418;2024-03-08T06:43:18;61758.19;;;11.91;100.00
50430;BME280;36359;41.556;-8.418;2024-03-08T06:45:45;61761.34;;;11.96;100.00
50430;BME280;36359;41.556;-8.418;2024-03-08T06:48:18;61705.84;;;11.43;100.00
50430;BME280;36359;41.556;-8.418;2024-03-08T06:50:44;61728.81;;;11.63;100.00
50430;BME280;36359;41.556;-8.418;2024-03-08T06:53:11;61743.22;;;11.76;100.00
50430;BME280;36359;41.556;-8.418;2024-03-08T06:55:37;61816.34;;;12.46;100.00
50430;BME280;36359;41.556;-8.418;2024-03-08T06:58:03;61737.88;;;11.71;100.00
50430;BME280;36359;41.556;-8.418;2024-03-08T07:00:29;61773.69;;;12.03;100.00
50430;BME280;36359;41.556;-8.418;2024-03-08T07:02:56;61775.25;;;12.07;100.00
50430;BME280;36359;41.556;-8.418;2024-03-08T07:05:29;61719.19;;;11.56;100.00
50430;BME280;36359;41.556;-8.418;2024-03-08T07:07:56;61782.19;;;12.14;100.00
50430;BME280;36359;41.556;-8.418;2024-03-08T07:10:22;61734.69;;;11.68;100.00
50430;BME280;36359;41.556;-8.418;2024-03-08T07:12:50;61768.88;;;11.98;100.00
50430;BME280;36359;41.556;-8.418;2024-03-08T07:15:16;61720.84;;;11.52;100.00
50430;BME280;36359;41.556;-8.418;2024-03-08T07:17:45;61766.19;;;11.98;100.00
50430;BME280;36359;41.556;-8.418;2024-03-08T07:20:15;61773.13;;;12.05;100.00
50430;BME280;36359;41.556;-8.418;2024-03-08T07:22:47;61752.31;;;11.85;100.00
50430;BME280;36359;41.556;-8.418;2024-03-08T07:25:13;61783.81;;;12.15;100.00
50430;BME280;36359;41.556;-8.418;2024-03-08T07:27:55;61802.50;;;12.33;100.00
50430;BME280;36359;41.556;-8.418;2024-03-08T07:30:23;61759.22;;;11.94;100.00
50430;BME280;36359;41.556;-8.418;2024-03-08T07:33:08;61786.97;;;12.21;100.00
50430;BME280;36359;41.556;-8.418;2024-03-08T07:35:40;61751.22;;;11.87;100.00
50430;BME280;36359;41.556;-8.418;2024-03-08T07:38:08;61813.66;;;12.46;100.00
50430;BME280;36359;41.556;-8.418;2024-03-08T07:40:38;61745.34;;;11.81;100.00
50430;BME280;36359;41.556;-8.418;2024-03-08T07:43:10;61757.13;;;11.87;100.00
50430;BME280;36359;41.556;-8.418;2024-03-08T07:45:37;61813.16;;;12.43;100.00
50430;BME280;36359;41.556;-8.418;2024-03-08T07:48:03;61747.50;;;11.80;100.00
50430;BME280;36359;41.556;-8.418;2024-03-08T07:50:29;61748.03;;;11.81;100.00
50430;BME280;36359;41.556;-8.418;2024-03-08T07:52:55;61779.50;;;12.14;100.00
50430;BME280;36359;41.556;-8.418;2024-03-08T07:55:21;61743.78;;;11.74;100.00
50430;BME280;36359;41.556;-8.418;2024-03-08T07:57:49;61762.44;;;11.97;100.00
50430;BME280;36359;41.556;-8.418;2024-03-08T08:00:15;61798.75;;;12.30;100.00
50430;BME280;36359;41.556;-8.418;2024-03-08T08:02:44;61757.09;;;11.92;100.00
50430;BME280;36359;41.556;-8.418;2024-03-08T08:05:11;61775.25;;;12.10;100.00
50430;BME280;36359;41.556;-8.418;2024-03-08T08:07:37;61762.44;;;11.97;100.00
50430;BME280;36359;41.556;-8.418;2024-03-08T08:10:03;61750.69;;;11.86;100.00
50430;BME280;36359;41.556;-8.418;2024-03-08T08:12:31;61773.13;;;12.05;100.00
50430;BME280;36359;41.556;-8.418;2024-03-08T08:15:00;61966.47;;;13.93;100.00
50430;BME280;36359;41.556;-8.418;2024-03-08T08:17:25;61901.84;;;13.28;100.00
50430;BME280;36359;41.556;-8.418;2024-03-08T08:19:51;61858.53;;;12.89;100.00
50430;BME280;36359;41.556;-8.418;2024-03-08T08:22:17;61868.69;;;12.96;100.00
50430;BME280;36359;41.556;-8.418;2024-03-08T08:24:43;61922.16;;;13.48;100.00
50430;BME280;36359;41.556;-8.418;2024-03-08T08:27:09;61894.84;;;13.27;100.00
50430;BME280;36359;41.556;-8.418;2024-03-08T08:29:37;61944.03;;;13.71;100.00
50430;BME280;36359;41.556;-8.418;2024-03-08T08:32:03;61811.00;;;12.44;98.89
50430;BME280;36359;41.556;-8.418;2024-03-08T08:34:29;61745.88;;;11.79;100.00
50430;BME280;36359;41.556;-8.418;2024-03-08T08:36:55;61766.19;;;11.98;98.10
50430;BME280;36359;41.556;-8.418;2024-03-08T08:39:21;61748.53;;;11.84;100.00
50430;BME280;36359;41.556;-8.418;2024-03-08T08:41:48;61745.88;;;11.79;100.00
50430;BME280;36359;41.556;-8.418;2024-03-08T08:44:14;61752.28;;;11.88;100.00
50430;BME280;36359;41.556;-8.418;2024-03-08T08:46:40;61727.22;;;11.58;100.00
50430;BME280;36359;41.556;-8.418;2024-03-08T08:49:06;61723.47;;;11.57;100.00
50430;BME280;36359;41.556;-8.418;2024-03-08T08:51:36;61744.31;;;11.75;100.00
50430;BME280;36359;41.556;-8.418;2024-03-08T08:54:02;61719.72;;;11.56;100.00
50430;BME280;36359;41.556;-8.418;2024-03-08T08:56:28;61720.28;;;11.54;100.00
50430;BME280;36359;41.556;-8.418;2024-03-08T08:58:54;61724.00;;;11.60;100.00
50430;BME280;36359;41.556;-8.418;2024-03-08T09:01:20;61726.16;;;11.60;100.00
50430;BME280;36359;41.556;-8.418;2024-03-08T09:03:46;61725.63;;;11.59;100.00
50430;BME280;36359;41.556;-8.418;2024-03-08T09:06:12;61759.22;;;11.94;100.00
50430;BME280;36359;41.556;-8.418;2024-03-08T09:08:39;61749.63;;;11.85;100.00
50430;BME280;36359;41.556;-8.418;2024-03-08T09:11:05;61761.94;;;11.94;100.00
50430;BME280;36359;41.556;-8.418;2024-03-08T09:13:31;61767.75;;;12.02;100.00
50430;BME280;36359;41.556;-8.418;2024-03-08T09:15:59;61844.63;;;12.76;100.00
50430;BME280;36359;41.556;-8.418;2024-03-08T09:18:25;61969.69;;;13.96;100.00
50430;BME280;36359;41.556;-8.418;2024-03-08T09:20:51;61927.97;;;13.56;100.00
50430;BME280;36359;41.556;-8.418;2024-03-08T09:23:19;61886.28;;;13.16;100.00
50430;BME280;36359;41.556;-8.418;2024-03-08T09:25:45;61926.91;;;13.55;100.00
50430;BME280;36359;41.556;-8.418;2024-03-08T09:28:12;61945.13;;;13.70;100.00
50430;BME280;36359;41.556;-8.418;2024-03-08T09:30:41;61986.28;;;14.09;100.00
50430;BME280;36359;41.556;-8.418;2024-03-08T09:33:07;61956.84;;;13.83;100.00
50430;BME280;36359;41.556;-8.418;2024-03-08T09:35:33;61906.09;;;13.32;100.00
50430;BME280;36359;41.556;-8.418;2024-03-08T09:37:59;61944.56;;;13.72;100.00
50430;BME280;36359;41.556;-8.418;2024-03-08T09:40:25;61991.06;;;14.16;100.00
50430;BME280;36359;41.556;-8.418;2024-03-08T09:42:51;62001.81;;;14.24;100.00
50430;BME280;36359;41.556;-8.418;2024-03-08T09:45:20;61990.00;;;14.15;100.00
50430;BME280;36359;41.556;-8.418;2024-03-08T09:47:47;61990.53;;;14.16;100.00
50430;BME280;36359;41.556;-8.418;2024-03-08T09:50:14;61994.81;;;14.20;100.00
50430;BME280;36359;41.556;-8.418;2024-03-08T09:52:41;62049.91;;;14.72;100.00
50430;BME280;36359;41.556;-8.418;2024-03-08T09:55:12;61967.03;;;13.91;100.00
50430;BME280;36359;41.556;-8.418;2024-03-08T09:57:39;61945.16;;;13.67;100.00
50430;BME280;36359;41.556;-8.418;2024-03-08T10:00:06;61903.97;;;13.30;100.00
50430;BME280;36359;41.556;-8.418;2024-03-08T10:02:50;61911.44;;;13.37;100.00
50430;BME280;36359;41.556;-8.418;2024-03-08T10:05:17;61874.53;;;13.05;100.00
50430;BME280;36359;41.556;-8.418;2024-03-08T10:07:44;61872.97;;;13.01;99.31
50430;BME280;36359;41.556;-8.418;2024-03-08T10:10:09;61905.53;;;13.34;96.37
50430;BME280;36359;41.556;-8.418;2024-03-08T10:12:38;61915.69;;;13.44;98.59
50430;BME280;36359;41.556;-8.418;2024-03-08T10:15:08;61902.91;;;13.29;98.17
50430;BME280;36359;41.556;-8.418;2024-03-08T10:17:35;61985.75;;;14.08;100.00
50430;BME280;36359;41.556;-8.418;2024-03-08T10:20:01;61975.06;;;13.98;90.67
50430;BME280;36359;41.556;-8.418;2024-03-08T10:22:28;61990.00;;;14.15;88.83
50430;BME280;36359;41.556;-8.418;2024-03-08T10:24:55;61987.34;;;14.13;93.52
50430;BME280;36359;41.556;-8.418;2024-03-08T10:27:21;61969.69;;;13.96;90.27
50430;BME280;36359;41.556;-8.418;2024-03-08T10:29:48;62013.53;;;14.38;96.05
50430;BME280;36359;41.556;-8.418;2024-03-08T10:32:14;62010.34;;;14.32;90.42
50430;BME280;36359;41.556;-8.418;2024-03-08T10:34:40;62085.25;;;15.06;92.45
50430;BME280;36359;41.556;-8.418;2024-03-08T10:37:07;62023.16;;;14.47;89.17
50430;BME280;36359;41.556;-8.418;2024-03-08T10:39:40;61923.19;;;13.51;94.29
50430;BME280;36359;41.556;-8.418;2024-03-08T10:42:12;61922.66;;;13.51;98.65
50430;BME280;36359;41.556;-8.418;2024-03-08T10:44:57;61835.53;;;12.67;97.56
50430;BME280;36359;41.556;-8.418;2024-03-08T10:47:36;61874.00;;;13.04;97.81
50430;BME280;36359;41.556;-8.418;2024-03-08T10:50:20;61854.25;;;12.85;96.58
50430;BME280;36359;41.556;-8.418;2024-03-08T10:52:51;61844.09;;;12.76;100.00
50430;BME280;36359;41.556;-8.418;2024-03-08T10:55:18;61811.50;;;12.47;96.74
50430;BME280;36359;41.556;-8.418;2024-03-08T10:57:46;61858.00;;;12.89;98.58
50430;BME280;36359;41.556;-8.418;2024-03-08T11:00:16;61844.66;;;12.73;95.15
50430;BME280;36359;41.556;-8.418;2024-03-08T11:02:44;61885.75;;;13.18;100.00
50430;BME280;36359;41.556;-8.418;2024-03-08T11:05:21;61877.19;;;13.10;99.85
50430;BME280;36359;41.556;-8.418;2024-03-08T11:07:58;61917.84;;;13.46;95.79
50430;BME280;36359;41.556;-8.418;2024-03-08T11:10:24;61930.69;;;13.56;96.08
50430;BME280;36359;41.556;-8.418;2024-03-08T11:12:52;61949.31;;;13.81;85.12
50430;BME280;36359;41.556;-8.418;2024-03-08T11:15:17;61991.06;;;14.16;93.23
50430;BME280;36359;41.556;-8.418;2024-03-08T11:17:49;61954.72;;;13.81;87.86
50430;BME280;36359;41.556;-8.418;2024-03-08T11:20:20;61967.03;;;13.91;98.39
50430;BME280;36359;41.556;-8.418;2024-03-08T11:22:53;62026.34;;;14.50;85.96
50430;BME280;36359;41.556;-8.418;2024-03-08T11:25:53;62003.38;;;14.28;80.35
50430;BME280;36359;41.556;-8.418;2024-03-08T11:28:20;62047.78;;;14.70;94.22
50430;BME280;36359;41.556;-8.418;2024-03-08T11:33:35;62109.88;;;15.30;95.01
50430;BME280;36359;41.556;-8.418;2024-03-08T11:38:45;62038.22;;;14.56;83.90
50430;BME280;36359;41.556;-8.418;2024-03-08T11:41:18;61985.75;;;14.08;87.13
50430;BME280;36359;41.556;-8.418;2024-03-08T11:43:45;61999.63;;;14.24;90.63
50430;BME280;36359;41.556;-8.418;2024-03-08T11:46:12;61960.63;;;13.84;88.41
50430;BME280;36359;41.556;-8.418;2024-03-08T11:48:39;61920.50;;;13.49;87.12
50430;BME280;36359;41.556;-8.418;2024-03-08T11:51:08;61953.13;;;13.80;96.81
50430;BME280;36359;41.556;-8.418;2024-03-08T11:53:34;62037.09;;;14.60;80.05
50430;BME280;36359;41.556;-8.418;2024-03-08T11:56:12;62072.97;;;14.92;92.34
50430;BME280;36359;41.556;-8.418;2024-03-08T11:58:39;62101.78;;;15.27;83.92
50430;BME280;36359;41.556;-8.418;2024-03-08T12:01:10;62128.59;;;15.48;92.32
50430;BME280;36359;41.556;-8.418;2024-03-08T12:03:41;62130.72;;;15.50;81.74
50430;BME280;36359;41.556;-8.418;2024-03-08T12:06:11;62107.72;;;15.28;84.05
50430;BME280;36359;41.556;-8.418;2024-03-08T12:08:38;62134.50;;;15.53;88.22
50430;BME280;36359;41.556;-8.418;2024-03-08T12:11:04;62121.63;;;15.41;80.59
50430;BME280;36359;41.556;-8.418;2024-03-08T12:13:32;62098.63;;;15.19;85.48
50430;BME280;36359;41.556;-8.418;2024-03-08T12:16:02;62151.63;;;15.70;89.83
50430;BME280;36359;41.556;-8.418;2024-03-08T12:18:37;62153.78;;;15.72;88.48
50430;BME280;36359;41.556;-8.418;2024-03-08T12:21:06;62170.91;;;15.88;89.21
50430;BME280;36359;41.556;-8.418;2024-03-08T12:23:37;62121.09;;;15.40;83.56
50430;BME280;36359;41.556;-8.418;2024-03-08T12:26:32;62097.00;;;15.17;86.77
50430;BME280;36359;41.556;-8.418;2024-03-08T12:29:24;62074.53;;;14.96;91.12
50430;BME280;36359;41.556;-8.418;2024-03-08T12:31:54;62064.34;;;14.89;85.35
50430;BME280;36359;41.556;-8.418;2024-03-08T12:34:20;62071.31;;;14.93;94.33
50430;BME280;36359;41.556;-8.418;2024-03-08T12:36:50;62095.41;;;15.16;92.82
50430;BME280;36359;41.556;-8.418;2024-03-08T12:39:19;62131.81;;;15.51;84.30
50430;BME280;36359;41.556;-8.418;2024-03-08T12:41:53;62160.72;;;15.81;88.50
50430;BME280;36359;41.556;-8.418;2024-03-08T12:44:20;62155.38;;;15.73;81.93
50430;BME280;36359;41.556;-8.418;2024-03-08T12:46:47;62148.94;;;15.67;84.78
50430;BME280;36359;41.556;-8.418;2024-03-08T12:49:14;62136.09;;;15.55;81.77
50430;BME280;36359;41.556;-8.418;2024-03-08T12:51:44;62136.09;;;15.55;85.92
50430;BME280;36359;41.556;-8.418;2024-03-08T12:54:10;62101.81;;;15.22;85.18
50430;BME280;36359;41.556;-8.418;2024-03-08T12:56:37;62032.84;;;14.53;79.52